Ocean Taiga — 3EHZ6 — position and weather

sailwx.info

Track history (hours):
 
Tides and Currents Weather Stations Pressure Air Temp Water Temp Dewpoint Dewpoint Depression Visibility Wind Speed Wind Dir Waves Ship Positions

Ocean Taiga

Last reported at 2017-Aug-19 11:02 UTC. Time now 2017-Sep-24 03:14 UTC.
Position N 34°09' E 134°57'.
Warning: this ship's position is 35 days out of date.

Length 120 m; draft 9.1 m.

Type: Cargo ship. MMSI: 372041000.

Date/timePositionNaut miles runAvg speedWind from/ knotsBaromVisibWave heightAir tempDewpointWater temp
2017-Aug-19 11:02N 34°09' E 134°57'111.9
2017-Aug-19 10:57N 34°10' E 134°57'511.6
2017-Aug-19 10:30N 34°15' E 134°58'6 9.0
2017-Aug-19 09:48N 34°21' E 134°60'3 9.0
2017-Aug-19 09:29N 34°23' E 135°02'4 9.5
2017-Aug-19 09:00N 34°26' E 135°06'510.0
2017-Aug-19 08:30N 34°30' E 135°10'510.4
2017-Aug-19 08:00N 34°34' E 135°14'510.2
2017-Aug-19 07:30N 34°38' E 135°18'4 7.2
2017-Aug-19 07:00N 34°41' E 135°17'0 0.6
2017-Aug-19 06:29N 34°41' E 135°17'0 0.0
2017-Aug-19 05:59N 34°41' E 135°17'0 0.0
2017-Aug-19 05:29N 34°41' E 135°17'0 0.0
2017-Aug-19 04:59N 34°41' E 135°17'0 0.0
2017-Aug-19 04:29N 34°41' E 135°17'0 0.0
2017-Aug-19 03:59N 34°41' E 135°17'0 0.0
2017-Aug-19 03:29N 34°41' E 135°17'0 0.0
2017-Aug-19 02:59N 34°41' E 135°17'0 0.0
2017-Aug-19 02:29N 34°41' E 135°17'0 0.0
2017-Aug-19 01:59N 34°41' E 135°17'0 0.0
2017-Aug-19 01:29N 34°41' E 135°17'0 0.0
2017-Aug-19 00:59N 34°41' E 135°17'0 0.0
2017-Aug-19 00:17N 34°41' E 135°17'0 0.0
2017-Aug-18 23:59N 34°41' E 135°17'0 0.0
2017-Aug-18 23:29N 34°41' E 135°17'0 0.0
2017-Aug-18 22:59N 34°41' E 135°17'0 0.0
2017-Aug-18 22:23N 34°41' E 135°17'0 0.0
2017-Aug-18 21:59N 34°41' E 135°17'0 0.0
2017-Aug-18 21:29N 34°41' E 135°17'0 0.0
2017-Aug-18 20:59N 34°41' E 135°17'0 0.0
2017-Aug-18 20:29N 34°41' E 135°17'0 0.0
2017-Aug-18 19:59N 34°41' E 135°17'0 0.0
2017-Aug-18 19:29N 34°41' E 135°17'0 0.0
2017-Aug-18 18:59N 34°41' E 135°17'0 0.0
2017-Aug-18 18:29N 34°41' E 135°17'0 0.0
2017-Aug-18 17:59N 34°41' E 135°17'0 0.0
2017-Aug-18 17:29N 34°41' E 135°17'0 0.0
2017-Aug-18 16:59N 34°41' E 135°17'0 0.0
2017-Aug-18 16:29N 34°41' E 135°17'0 0.0
2017-Aug-18 15:59N 34°41' E 135°17'0 0.0
2017-Aug-18 15:23N 34°41' E 135°17'0 0.0
2017-Aug-18 14:59N 34°41' E 135°17'0 0.0
2017-Aug-18 14:29N 34°41' E 135°17'0 0.0
2017-Aug-18 13:29N 34°41' E 135°17'0 0.0
2017-Aug-18 12:59N 34°41' E 135°17'0 0.0
2017-Aug-18 11:59N 34°41' E 135°17'0 0.0
2017-Aug-18 11:29N 34°41' E 135°17'0 0.0
2017-Aug-18 10:59N 34°41' E 135°17'0 0.0
2017-Aug-18 10:29N 34°41' E 135°17'0 0.0
2017-Aug-18 09:59N 34°41' E 135°17'0 0.0
2017-Aug-18 09:29N 34°41' E 135°17'0 0.0
2017-Aug-18 08:59N 34°41' E 135°17'0 0.0
2017-Aug-18 08:29N 34°41' E 135°17'0 0.0
2017-Aug-18 07:59N 34°41' E 135°17'0 0.0
2017-Aug-18 07:29N 34°41' E 135°17'0 0.0
2017-Aug-18 06:59N 34°41' E 135°17'0 0.0
2017-Aug-18 06:17N 34°41' E 135°17'0 0.0
2017-Aug-18 05:59N 34°41' E 135°17'0 0.0
2017-Aug-18 05:29N 34°41' E 135°17'0 0.0
2017-Aug-18 04:59N 34°41' E 135°17'0 0.0
2017-Aug-18 04:29N 34°41' E 135°17'0 0.0
2017-Aug-18 03:53N 34°41' E 135°17'0 0.0
2017-Aug-18 02:59N 34°41' E 135°17'0 0.0
2017-Aug-18 02:23N 34°41' E 135°17'0 0.0
2017-Aug-18 01:59N 34°41' E 135°17'0 0.0
2017-Aug-18 01:17N 34°41' E 135°17'0 0.0
2017-Aug-18 00:59N 34°41' E 135°17'1 1.2
2017-Aug-18 00:30N 34°41' E 135°18'2 4.1
2017-Aug-18 00:00N 34°39' E 135°18'5 9.4
2017-Aug-17 23:30N 34°36' E 135°14'612.3
2017-Aug-17 23:00N 34°35' E 135°07'612.4
2017-Aug-17 22:29N 34°37' E 134°60'  
Track history (hours):
 
Tides and Currents Weather Stations Pressure Air Temp Water Temp Dewpoint Dewpoint Depression Visibility Wind Speed Wind Dir Waves Ship Positions

Ocean Taiga

Last reported at 2017-Aug-19 11:02 UTC. Time now 2017-Sep-24 03:14 UTC.
Position N 34°09' E 134°57'.
Warning: this ship's position is 35 days out of date.

Length 120 m; draft 9.1 m.

Type: Cargo ship. MMSI: 372041000.

Date/timePositionNaut miles runAvg speedWind from/ knotsBaromVisibWave heightAir tempDewpointWater temp
2017-Aug-19 11:02N 34°09' E 134°57'111.9
2017-Aug-19 10:57N 34°10' E 134°57'511.6
2017-Aug-19 10:30N 34°15' E 134°58'6 9.0
2017-Aug-19 09:48N 34°21' E 134°60'3 9.0
2017-Aug-19 09:29N 34°23' E 135°02'4 9.5
2017-Aug-19 09:00N 34°26' E 135°06'510.0
2017-Aug-19 08:30N 34°30' E 135°10'510.4
2017-Aug-19 08:00N 34°34' E 135°14'510.2
2017-Aug-19 07:30N 34°38' E 135°18'4 7.2
2017-Aug-19 07:00N 34°41' E 135°17'0 0.6
2017-Aug-19 06:29N 34°41' E 135°17'0 0.0
2017-Aug-19 05:59N 34°41' E 135°17'0 0.0
2017-Aug-19 05:29N 34°41' E 135°17'0 0.0
2017-Aug-19 04:59N 34°41' E 135°17'0 0.0
2017-Aug-19 04:29N 34°41' E 135°17'0 0.0
2017-Aug-19 03:59N 34°41' E 135°17'0 0.0
2017-Aug-19 03:29N 34°41' E 135°17'0 0.0
2017-Aug-19 02:59N 34°41' E 135°17'0 0.0
2017-Aug-19 02:29N 34°41' E 135°17'0 0.0
2017-Aug-19 01:59N 34°41' E 135°17'0 0.0
2017-Aug-19 01:29N 34°41' E 135°17'0 0.0
2017-Aug-19 00:59N 34°41' E 135°17'0 0.0
2017-Aug-19 00:17N 34°41' E 135°17'0 0.0
2017-Aug-18 23:59N 34°41' E 135°17'0 0.0
2017-Aug-18 23:29N 34°41' E 135°17'0 0.0
2017-Aug-18 22:59N 34°41' E 135°17'0 0.0
2017-Aug-18 22:23N 34°41' E 135°17'0 0.0
2017-Aug-18 21:59N 34°41' E 135°17'0 0.0
2017-Aug-18 21:29N 34°41' E 135°17'0 0.0
2017-Aug-18 20:59N 34°41' E 135°17'0 0.0
2017-Aug-18 20:29N 34°41' E 135°17'0 0.0
2017-Aug-18 19:59N 34°41' E 135°17'0 0.0
2017-Aug-18 19:29N 34°41' E 135°17'0 0.0
2017-Aug-18 18:59N 34°41' E 135°17'0 0.0
2017-Aug-18 18:29N 34°41' E 135°17'0 0.0
2017-Aug-18 17:59N 34°41' E 135°17'0 0.0
2017-Aug-18 17:29N 34°41' E 135°17'0 0.0
2017-Aug-18 16:59N 34°41' E 135°17'0 0.0
2017-Aug-18 16:29N 34°41' E 135°17'0 0.0
2017-Aug-18 15:59N 34°41' E 135°17'0 0.0
2017-Aug-18 15:23N 34°41' E 135°17'0 0.0
2017-Aug-18 14:59N 34°41' E 135°17'0 0.0
2017-Aug-18 14:29N 34°41' E 135°17'0 0.0
2017-Aug-18 13:29N 34°41' E 135°17'0 0.0
2017-Aug-18 12:59N 34°41' E 135°17'0 0.0
2017-Aug-18 11:59N 34°41' E 135°17'0 0.0
2017-Aug-18 11:29N 34°41' E 135°17'0 0.0
2017-Aug-18 10:59N 34°41' E 135°17'0 0.0
2017-Aug-18 10:29N 34°41' E 135°17'0 0.0
2017-Aug-18 09:59N 34°41' E 135°17'0 0.0
2017-Aug-18 09:29N 34°41' E 135°17'0 0.0
2017-Aug-18 08:59N 34°41' E 135°17'0 0.0
2017-Aug-18 08:29N 34°41' E 135°17'0 0.0
2017-Aug-18 07:59N 34°41' E 135°17'0 0.0
2017-Aug-18 07:29N 34°41' E 135°17'0 0.0
2017-Aug-18 06:59N 34°41' E 135°17'0 0.0
2017-Aug-18 06:17N 34°41' E 135°17'0 0.0
2017-Aug-18 05:59N 34°41' E 135°17'0 0.0
2017-Aug-18 05:29N 34°41' E 135°17'0 0.0
2017-Aug-18 04:59N 34°41' E 135°17'0 0.0
2017-Aug-18 04:29N 34°41' E 135°17'0 0.0
2017-Aug-18 03:53N 34°41' E 135°17'0 0.0
2017-Aug-18 02:59N 34°41' E 135°17'0 0.0
2017-Aug-18 02:23N 34°41' E 135°17'0 0.0
2017-Aug-18 01:59N 34°41' E 135°17'0 0.0
2017-Aug-18 01:17N 34°41' E 135°17'0 0.0
2017-Aug-18 00:59N 34°41' E 135°17'1 1.2
2017-Aug-18 00:30N 34°41' E 135°18'2 4.1
2017-Aug-18 00:00N 34°39' E 135°18'5 9.4
2017-Aug-17 23:30N 34°36' E 135°14'612.3
2017-Aug-17 23:00N 34°35' E 135°07'612.4
2017-Aug-17 22:29N 34°37' E 134°60'  

Dump ship's entire track history